RJFA weather

Ashiya Airport
Fukuoka Prefecture, Japan

Public forecast

Using degrees Celsius for public forecast. Weather courtesy of forecast.io.

Current aviation weather report (METAR) for Ashiya Airport

Report is more than 6 hours old.

Retrieved 2011/10/06 11:25 UTC (8 years ago):

RJFA 061125Z VRB02KT 9999 FEW030 SCT170 BKN/// 20/14 Q1014 RMK 1CU030 3AC170 A2996

Closest aviation forecast (TAF) to Ashiya Airport

Closest forecast is Kitakyūshū Airport, 19.2 nm (35.5 km) E. Retrieved 2020-02-18 00:30 UTC (3 hours ago):

TAF TAF RJFR 172306Z 1800/1906 29017KT 9999 FEW025 BKN035 BECMG 1809/1811 27005KT BECMG 1812/1815 23006KT BECMG 1903/1906 06005KT